Time;durP1;ratioP1;P1;durP2;ratioP2;P2;SDS_P1;SDS_P2;PMS_P1;PMS_P2;Temp;Humidity;BMP_temperature;BMP_pressure;BME280_temperature;BME280_humidity;BME280_pressure;Samples;Min_cycle;Max_cycle;Signal;HPM_P1;HPM_P2
2023/07/03 00:01:04;;;;;;;;;;;19.60;66.80;;;;;;5115579;27;19916;-69
2023/07/03 00:03:29;;;;;;;;;;;19.50;67.40;;;;;;5115301;27;20422;-69
2023/07/03 00:05:55;;;;;;;;;;;19.50;67.50;;;;;;5114971;27;19952;-69
2023/07/03 00:08:20;;;;;;;;;;;19.50;67.20;;;;;;5123480;27;20272;-69
2023/07/03 00:10:46;;;;;;;;;;;19.50;67.70;;;;;;5134521;27;19911;-69
2023/07/03 00:13:11;;;;;;;;;;;19.50;67.70;;;;;;5118564;27;20076;-69
2023/07/03 00:15:37;;;;;;;;;;;19.40;67.70;;;;;;5115023;27;19912;-69
2023/07/03 00:18:02;;;;;;;;;;;19.40;67.30;;;;;;5115435;27;19912;-70
2023/07/03 00:20:28;;;;;;;;;;;19.40;67.00;;;;;;5115066;27;19912;-69
2023/07/03 00:22:54;;;;;;;;;;;19.40;67.60;;;;;;5114842;27;19964;-69
2023/07/03 00:25:20;;;;;;;;;;;19.40;67.60;;;;;;5114510;27;19915;-70
2023/07/03 00:27:46;;;;;;;;;;;19.30;67.60;;;;;;5114612;27;19919;-70
2023/07/03 00:30:12;;;;;;;;;;;19.30;67.50;;;;;;5115041;27;19919;-70
2023/07/03 00:32:38;;;;;;;;;;;19.30;67.60;;;;;;5115106;27;19907;-70
2023/07/03 00:35:04;;;;;;;;;;;19.30;66.90;;;;;;5114988;27;19979;-69
2023/07/03 00:37:30;;;;;;;;;;;19.20;67.70;;;;;;5112926;28;19934;-69
2023/07/03 00:39:55;;;;;;;;;;;19.20;67.60;;;;;;5115033;27;20352;-69
2023/07/03 00:42:25;;;;;;;;;;;19.20;67.40;;;;;;5113403;27;20621;-69
2023/07/03 00:44:50;;;;;;;;;;;19.20;67.70;;;;;;5114942;27;20334;-68
2023/07/03 00:47:16;;;;;;;;;;;19.10;67.70;;;;;;5114753;27;19908;-69
2023/07/03 00:49:41;;;;;;;;;;;19.10;67.60;;;;;;5113302;28;19911;-69
2023/07/03 00:52:10;;;;;;;;;;;19.10;67.50;;;;;;5110178;28;19947;-68
2023/07/03 00:54:35;;;;;;;;;;;19.00;67.70;;;;;;5110187;28;20061;-68
2023/07/03 00:57:01;;;;;;;;;;;19.00;67.30;;;;;;5111195;28;19999;-69
2023/07/03 00:59:26;;;;;;;;;;;19.00;67.80;;;;;;5111565;28;19934;-68
2023/07/03 01:01:55;;;;;;;;;;;19.00;67.60;;;;;;5111644;28;19914;-69
2023/07/03 01:04:26;;;;;;;;;;;19.00;67.50;;;;;;5111680;28;19935;-68
2023/07/03 01:06:57;;;;;;;;;;;18.90;67.40;;;;;;5111189;28;19978;-68
2023/07/03 01:09:25;;;;;;;;;;;18.90;67.90;;;;;;5111717;27;20026;-68
2023/07/03 01:11:51;;;;;;;;;;;18.90;67.90;;;;;;5111395;27;19911;-68
2023/07/03 01:14:18;;;;;;;;;;;18.80;67.70;;;;;;5111264;28;19953;-69
2023/07/03 01:16:44;;;;;;;;;;;18.80;67.80;;;;;;5111111;28;20002;-69
2023/07/03 01:19:12;;;;;;;;;;;18.80;67.80;;;;;;5111801;28;19943;-69
2023/07/03 01:21:44;;;;;;;;;;;18.80;67.50;;;;;;5111209;28;20606;-69
2023/07/03 01:24:14;;;;;;;;;;;18.70;67.60;;;;;;5111393;28;19920;-69
2023/07/03 01:26:41;;;;;;;;;;;18.70;67.60;;;;;;5109327;28;20265;-68
2023/07/03 01:29:08;;;;;;;;;;;18.70;68.00;;;;;;5111166;28;19919;-70
2023/07/03 01:31:35;;;;;;;;;;;18.70;67.80;;;;;;5110651;27;20283;-68
2023/07/03 01:34:01;;;;;;;;;;;18.60;67.90;;;;;;5090183;28;19912;-69
2023/07/03 01:36:28;;;;;;;;;;;18.60;67.70;;;;;;5095283;28;19916;-69
2023/07/03 01:38:54;;;;;;;;;;;18.60;68.00;;;;;;5107894;28;19912;-69
2023/07/03 01:41:19;;;;;;;;;;;18.60;67.90;;;;;;5110144;28;19934;-69
2023/07/03 01:43:46;;;;;;;;;;;18.50;68.30;;;;;;5110891;28;19908;-68
2023/07/03 01:46:11;;;;;;;;;;;18.50;68.00;;;;;;5110656;28;19908;-68
2023/07/03 01:48:37;;;;;;;;;;;18.50;68.10;;;;;;5110716;28;19984;-69
2023/07/03 01:51:03;;;;;;;;;;;18.50;68.10;;;;;;5110949;28;19989;-68
2023/07/03 01:53:31;;;;;;;;;;;18.50;67.70;;;;;;5110722;28;20027;-69
2023/07/03 01:56:15;;;;;;;;;;;18.40;67.80;;;;;;5108821;28;19916;-69
2023/07/03 01:58:51;;;;;;;;;;;18.50;68.00;;;;;;5111713;27;19939;-69
2023/07/03 02:01:21;;;;;;;;;;;18.40;68.10;;;;;;5111051;27;20308;-69
2023/07/03 02:03:57;;;;;;;;;;;18.40;68.10;;;;;;5110549;28;19951;-68
2023/07/03 02:06:25;;;;;;;;;;;18.40;67.60;;;;;;5109645;28;20549;-68
2023/07/03 02:08:51;;;;;;;;;;;18.40;68.20;;;;;;5109324;28;19917;-69
2023/07/03 02:11:18;;;;;;;;;;;18.30;68.20;;;;;;5110328;28;19915;-69
2023/07/03 02:13:43;;;;;;;;;;;18.40;68.30;;;;;;5110277;28;19992;-69
2023/07/03 02:16:09;;;;;;;;;;;18.30;68.10;;;;;;5109973;28;20390;-68
2023/07/03 02:18:35;;;;;;;;;;;18.30;68.20;;;;;;5110199;28;19962;-70
2023/07/03 02:21:00;;;;;;;;;;;18.30;68.10;;;;;;5110280;28;19947;-69
2023/07/03 02:23:26;;;;;;;;;;;18.30;68.00;;;;;;5109826;28;19916;-68
2023/07/03 02:25:51;;;;;;;;;;;18.20;68.20;;;;;;5109855;28;20386;-69
2023/07/03 02:28:18;;;;;;;;;;;18.20;68.30;;;;;;5109916;28;19911;-68
2023/07/03 02:30:43;;;;;;;;;;;18.30;68.30;;;;;;5110223;28;19912;-68
2023/07/03 02:33:10;;;;;;;;;;;18.30;68.30;;;;;;5108407;28;19980;-68
2023/07/03 02:35:37;;;;;;;;;;;18.20;68.30;;;;;;5109330;28;19919;-68
2023/07/03 02:38:03;;;;;;;;;;;18.20;68.00;;;;;;5108784;28;19947;-69
2023/07/03 02:40:29;;;;;;;;;;;18.20;68.20;;;;;;5106179;28;19958;-68
2023/07/03 02:42:54;;;;;;;;;;;18.20;68.30;;;;;;5096816;28;19973;-68
2023/07/03 02:45:20;;;;;;;;;;;18.10;68.30;;;;;;5108467;28;20436;-69
2023/07/03 02:47:45;;;;;;;;;;;18.10;68.30;;;;;;5109526;28;19908;-68
2023/07/03 02:50:11;;;;;;;;;;;18.10;68.30;;;;;;5109540;28;19912;-68
2023/07/03 02:52:36;;;;;;;;;;;18.10;68.30;;;;;;5109309;28;19919;-69
2023/07/03 02:55:02;;;;;;;;;;;18.10;68.30;;;;;;5109550;27;19916;-68
2023/07/03 02:57:28;;;;;;;;;;;18.10;68.50;;;;;;5108833;28;19946;-69
2023/07/03 02:59:54;;;;;;;;;;;18.10;68.50;;;;;;5106338;28;19912;-68
2023/07/03 03:02:19;;;;;;;;;;;18.10;68.40;;;;;;5088813;28;20143;-68
2023/07/03 03:04:47;;;;;;;;;;;18.00;68.00;;;;;;5090758;28;20003;-69
2023/07/03 03:07:12;;;;;;;;;;;18.00;68.40;;;;;;5108099;28;20010;-69
2023/07/03 03:09:38;;;;;;;;;;;18.00;68.60;;;;;;5109250;28;20018;-68
2023/07/03 03:12:03;;;;;;;;;;;18.00;68.90;;;;;;5108620;28;20491;-68
2023/07/03 03:14:29;;;;;;;;;;;18.00;68.70;;;;;;5108476;28;20657;-68
2023/07/03 03:16:54;;;;;;;;;;;18.00;68.30;;;;;;5108725;28;19957;-68
2023/07/03 03:19:20;;;;;;;;;;;18.00;68.20;;;;;;5108967;28;19918;-69
2023/07/03 03:21:49;;;;;;;;;;;17.90;68.40;;;;;;5108746;28;19914;-68
2023/07/03 03:24:15;;;;;;;;;;;17.90;68.60;;;;;;5109036;28;19922;-68
2023/07/03 03:26:41;;;;;;;;;;;17.90;68.10;;;;;;5107389;28;20333;-68
2023/07/03 03:29:06;;;;;;;;;;;17.90;68.60;;;;;;5109038;28;19919;-68
2023/07/03 03:31:32;;;;;;;;;;;17.80;69.10;;;;;;5108853;28;19916;-68
2023/07/03 03:33:57;;;;;;;;;;;17.90;68.80;;;;;;5109065;28;20577;-68
2023/07/03 03:36:23;;;;;;;;;;;17.90;68.80;;;;;;5107561;28;19922;-68
2023/07/03 03:38:48;;;;;;;;;;;17.90;68.80;;;;;;5108363;28;20668;-68
2023/07/03 03:41:14;;;;;;;;;;;17.80;68.60;;;;;;5108741;28;20331;-68
2023/07/03 03:43:39;;;;;;;;;;;17.80;68.80;;;;;;5107433;28;19923;-69
2023/07/03 03:46:05;;;;;;;;;;;17.80;68.60;;;;;;5108530;28;19998;-68
2023/07/03 03:48:31;;;;;;;;;;;17.80;69.00;;;;;;5108798;28;19955;-69
2023/07/03 03:50:56;;;;;;;;;;;17.80;68.90;;;;;;5119679;28;19908;-68
2023/07/03 03:53:22;;;;;;;;;;;17.80;68.80;;;;;;5129174;27;19917;-69
2023/07/03 03:55:49;;;;;;;;;;;17.80;69.00;;;;;;5128806;27;19912;-68
2023/07/03 03:58:15;;;;;;;;;;;17.80;68.90;;;;;;5129044;27;19919;-69
2023/07/03 04:00:41;;;;;;;;;;;17.80;68.90;;;;;;5129202;27;19916;-68
2023/07/03 04:03:07;;;;;;;;;;;17.80;69.00;;;;;;5129132;27;19965;-69
2023/07/03 04:05:32;;;;;;;;;;;17.80;69.10;;;;;;5120035;27;20588;-68
2023/07/03 04:07:58;;;;;;;;;;;17.80;69.00;;;;;;5106989;28;19919;-69
2023/07/03 04:10:23;;;;;;;;;;;17.80;69.00;;;;;;5108136;28;19955;-68
2023/07/03 04:12:49;;;;;;;;;;;17.80;69.10;;;;;;5108227;28;19915;-69
2023/07/03 04:15:14;;;;;;;;;;;17.80;69.10;;;;;;5108100;28;19912;-68
2023/07/03 04:17:40;;;;;;;;;;;17.80;69.10;;;;;;5108091;28;19911;-68
2023/07/03 04:20:08;;;;;;;;;;;17.80;68.90;;;;;;5108490;28;19908;-68
2023/07/03 04:22:33;;;;;;;;;;;17.70;69.10;;;;;;5108257;28;19995;-68
2023/07/03 04:24:59;;;;;;;;;;;17.70;69.10;;;;;;5108937;28;20351;-68
2023/07/03 04:27:25;;;;;;;;;;;17.70;69.30;;;;;;5111630;28;19947;-68
2023/07/03 04:29:50;;;;;;;;;;;17.70;69.30;;;;;;5112276;28;19918;-68
2023/07/03 04:32:16;;;;;;;;;;;17.70;69.30;;;;;;5112211;28;19908;-68
2023/07/03 04:34:41;;;;;;;;;;;17.70;69.30;;;;;;5112212;28;20398;-68
2023/07/03 04:37:08;;;;;;;;;;;17.60;69.40;;;;;;5109488;28;20398;-68
2023/07/03 04:39:34;;;;;;;;;;;17.70;69.40;;;;;;5111920;28;19912;-68
2023/07/03 04:42:00;;;;;;;;;;;17.70;69.50;;;;;;5111767;28;19912;-69
2023/07/03 04:44:26;;;;;;;;;;;17.60;69.50;;;;;;5112125;28;20711;-68
2023/07/03 04:46:55;;;;;;;;;;;17.60;69.40;;;;;;5111820;28;19938;-69
2023/07/03 04:49:23;;;;;;;;;;;17.70;69.40;;;;;;5112040;28;20299;-69
2023/07/03 04:51:52;;;;;;;;;;;17.60;69.40;;;;;;5110494;28;19944;-68
2023/07/03 04:54:18;;;;;;;;;;;17.60;69.50;;;;;;5112204;28;19919;-68
2023/07/03 04:56:44;;;;;;;;;;;17.60;69.60;;;;;;5111491;28;20384;-68
2023/07/03 04:59:10;;;;;;;;;;;17.60;69.50;;;;;;5111899;28;20350;-69
2023/07/03 05:01:36;;;;;;;;;;;17.60;69.90;;;;;;5111856;28;19908;-69
2023/07/03 05:04:01;;;;;;;;;;;17.60;69.70;;;;;;5111385;28;20291;-68
2023/07/03 05:06:27;;;;;;;;;;;17.60;69.90;;;;;;5111243;28;20369;-68
2023/07/03 05:08:52;;;;;;;;;;;17.70;69.50;;;;;;5110197;28;19915;-68
2023/07/03 05:11:18;;;;;;;;;;;17.60;69.70;;;;;;5111774;27;19911;-69
2023/07/03 05:13:43;;;;;;;;;;;17.60;69.80;;;;;;5111618;28;19911;-69
2023/07/03 05:16:09;;;;;;;;;;;17.70;69.70;;;;;;5109884;28;20612;-70
2023/07/03 05:18:34;;;;;;;;;;;17.70;69.70;;;;;;5111619;28;19912;-68
2023/07/03 05:21:00;;;;;;;;;;;17.70;69.70;;;;;;5111384;28;19911;-68
2023/07/03 05:23:26;;;;;;;;;;;17.70;69.50;;;;;;5111164;28;20010;-68
2023/07/03 05:25:53;;;;;;;;;;;17.70;69.70;;;;;;5110349;28;20445;-68
2023/07/03 05:28:19;;;;;;;;;;;17.70;69.80;;;;;;5110954;28;19951;-68
2023/07/03 05:30:44;;;;;;;;;;;17.70;69.80;;;;;;5111279;28;20284;-68
2023/07/03 05:33:12;;;;;;;;;;;17.70;69.70;;;;;;5111237;28;19915;-68
2023/07/03 05:35:38;;;;;;;;;;;17.70;69.80;;;;;;5110361;27;20463;-68
2023/07/03 05:38:04;;;;;;;;;;;17.80;69.90;;;;;;5109337;28;19912;-69
2023/07/03 05:40:30;;;;;;;;;;;17.80;69.90;;;;;;5111025;27;19911;-68
2023/07/03 05:42:56;;;;;;;;;;;17.80;69.90;;;;;;5110878;28;19916;-69
2023/07/03 05:45:21;;;;;;;;;;;17.80;70.10;;;;;;5110707;28;19919;-68
2023/07/03 05:47:47;;;;;;;;;;;17.80;69.90;;;;;;5110934;28;19907;-69
2023/07/03 05:50:12;;;;;;;;;;;17.90;69.90;;;;;;5110963;28;19908;-69
2023/07/03 05:52:40;;;;;;;;;;;17.90;70.00;;;;;;5110695;28;19947;-68
2023/07/03 05:55:06;;;;;;;;;;;17.90;70.10;;;;;;5110811;28;20230;-68
2023/07/03 05:57:31;;;;;;;;;;;17.90;70.00;;;;;;5110671;28;19965;-68
2023/07/03 05:59:59;;;;;;;;;;;17.90;70.00;;;;;;5113066;27;20375;-69
2023/07/03 06:02:24;;;;;;;;;;;17.90;70.30;;;;;;5130973;27;19912;-68
2023/07/03 06:04:51;;;;;;;;;;;17.90;70.20;;;;;;5128086;27;19912;-69
2023/07/03 06:07:16;;;;;;;;;;;18.00;70.00;;;;;;5110143;28;19961;-69
2023/07/03 06:09:42;;;;;;;;;;;18.00;70.30;;;;;;5110547;28;19916;-68
2023/07/03 06:12:08;;;;;;;;;;;18.00;70.00;;;;;;5109996;28;20237;-68
2023/07/03 06:14:33;;;;;;;;;;;18.10;69.90;;;;;;5108983;28;19999;-69
2023/07/03 06:16:59;;;;;;;;;;;18.10;70.00;;;;;;5110112;28;19918;-68
2023/07/03 06:19:25;;;;;;;;;;;18.00;70.10;;;;;;5110173;28;19912;-69
2023/07/03 06:21:51;;;;;;;;;;;18.10;70.50;;;;;;5110386;28;19915;-68
2023/07/03 06:24:17;;;;;;;;;;;18.00;70.30;;;;;;5110194;28;19920;-69
2023/07/03 06:26:43;;;;;;;;;;;18.10;70.10;;;;;;5109904;28;19912;-68
2023/07/03 06:29:10;;;;;;;;;;;18.10;70.50;;;;;;5110477;28;20284;-68
2023/07/03 06:31:36;;;;;;;;;;;18.20;70.40;;;;;;5110193;28;19912;-69
2023/07/03 06:34:03;;;;;;;;;;;18.20;70.30;;;;;;5110031;28;20003;-68
2023/07/03 06:36:28;;;;;;;;;;;18.20;70.40;;;;;;5108990;28;20619;-68
2023/07/03 06:38:55;;;;;;;;;;;18.20;70.40;;;;;;5109486;28;19918;-68
2023/07/03 06:41:22;;;;;;;;;;;18.20;70.30;;;;;;5109650;28;19912;-69
2023/07/03 06:43:47;;;;;;;;;;;18.30;70.10;;;;;;5109814;28;20311;-69
2023/07/03 06:46:14;;;;;;;;;;;18.20;70.40;;;;;;5109694;28;19918;-68
2023/07/03 06:48:40;;;;;;;;;;;18.30;70.60;;;;;;5109141;28;20006;-69
2023/07/03 06:51:06;;;;;;;;;;;18.30;70.10;;;;;;5109698;28;20015;-69
2023/07/03 06:53:32;;;;;;;;;;;18.30;70.10;;;;;;5109698;28;19911;-68
2023/07/03 06:55:57;;;;;;;;;;;18.40;70.10;;;;;;5109270;28;19922;-69
2023/07/03 06:58:23;;;;;;;;;;;18.30;70.20;;;;;;5109604;28;19912;-68
2023/07/03 07:00:49;;;;;;;;;;;18.40;70.70;;;;;;5109645;28;20014;-69
2023/07/03 07:03:14;;;;;;;;;;;18.30;70.40;;;;;;5109486;28;19911;-69
2023/07/03 07:05:40;;;;;;;;;;;18.40;70.20;;;;;;5107739;28;19951;-68
2023/07/03 07:08:05;;;;;;;;;;;18.40;70.20;;;;;;5109360;28;19912;-68
2023/07/03 07:10:31;;;;;;;;;;;18.40;71.30;;;;;;5109358;28;19912;-68
2023/07/03 07:12:56;;;;;;;;;;;18.40;70.50;;;;;;5109141;28;20056;-69
2023/07/03 07:15:22;;;;;;;;;;;18.40;70.90;;;;;;5108927;28;19955;-68
2023/07/03 07:17:47;;;;;;;;;;;18.50;70.40;;;;;;5109420;28;19908;-69
2023/07/03 07:20:13;;;;;;;;;;;18.50;70.20;;;;;;5109242;28;19908;-68
2023/07/03 07:22:38;;;;;;;;;;;18.60;70.30;;;;;;5109105;28;19919;-68
2023/07/03 07:25:04;;;;;;;;;;;18.60;70.20;;;;;;5109418;28;19955;-69
2023/07/03 07:27:30;;;;;;;;;;;18.60;70.10;;;;;;5108606;28;20411;-69
2023/07/03 07:29:55;;;;;;;;;;;18.70;70.20;;;;;;5109373;28;19943;-69
2023/07/03 07:32:24;;;;;;;;;;;18.70;70.20;;;;;;5108999;28;20448;-69
2023/07/03 07:34:50;;;;;;;;;;;18.70;70.40;;;;;;5109134;28;20288;-69
2023/07/03 07:37:15;;;;;;;;;;;18.70;70.50;;;;;;5107197;28;19912;-69
2023/07/03 07:39:42;;;;;;;;;;;18.70;70.20;;;;;;5108969;28;19926;-68
2023/07/03 07:42:08;;;;;;;;;;;18.80;70.20;;;;;;5108898;28;19907;-69
2023/07/03 07:44:34;;;;;;;;;;;18.80;70.30;;;;;;5108318;28;19972;-69
2023/07/03 07:46:59;;;;;;;;;;;18.80;70.10;;;;;;5107985;28;19918;-69
2023/07/03 07:49:25;;;;;;;;;;;18.90;70.00;;;;;;5109095;28;20391;-69
2023/07/03 07:51:50;;;;;;;;;;;18.90;69.80;;;;;;5108740;28;19919;-69
2023/07/03 07:54:16;;;;;;;;;;;18.90;70.10;;;;;;5108774;28;19912;-69
2023/07/03 07:56:41;;;;;;;;;;;19.00;69.80;;;;;;5108476;28;19919;-69
2023/07/03 07:59:07;;;;;;;;;;;19.00;69.70;;;;;;5109552;28;19912;-69
2023/07/03 08:01:32;;;;;;;;;;;19.10;69.50;;;;;;5113163;28;19947;-69
2023/07/03 08:03:58;;;;;;;;;;;19.20;69.80;;;;;;5112854;28;19912;-69
2023/07/03 08:06:23;;;;;;;;;;;19.10;69.60;;;;;;5115766;27;19919;-69
2023/07/03 08:08:49;;;;;;;;;;;19.20;69.40;;;;;;5132938;27;19918;-69
2023/07/03 08:11:15;;;;;;;;;;;19.20;69.50;;;;;;5111990;27;19915;-69
2023/07/03 08:13:41;;;;;;;;;;;19.10;69.60;;;;;;5112792;27;20014;-69
2023/07/03 08:16:07;;;;;;;;;;;19.10;69.60;;;;;;5112320;28;20432;-69
2023/07/03 08:18:33;;;;;;;;;;;19.10;69.70;;;;;;5112930;27;20380;-69
2023/07/03 08:20:58;;;;;;;;;;;19.10;69.70;;;;;;5112793;28;19919;-68
2023/07/03 08:23:24;;;;;;;;;;;19.10;69.80;;;;;;5112657;28;20609;-69
2023/07/03 08:25:51;;;;;;;;;;;19.10;69.70;;;;;;5112199;28;20132;-69
2023/07/03 08:28:16;;;;;;;;;;;19.00;69.80;;;;;;5112415;28;19919;-69
2023/07/03 08:30:42;;;;;;;;;;;19.00;69.80;;;;;;5112476;28;19912;-69
2023/07/03 08:33:07;;;;;;;;;;;19.00;70.00;;;;;;5112580;28;19915;-68
2023/07/03 08:35:33;;;;;;;;;;;19.00;69.90;;;;;;5112155;28;19993;-69
2023/07/03 08:38:01;;;;;;;;;;;18.90;69.80;;;;;;5110837;28;19912;-68
2023/07/03 08:40:27;;;;;;;;;;;18.90;70.00;;;;;;5107469;28;20012;-68
2023/07/03 08:42:56;;;;;;;;;;;18.90;70.00;;;;;;5108743;28;20005;-68
2023/07/03 08:45:42;;;;;;;;;;;18.90;69.80;;;;;;5111642;28;19919;-68
2023/07/03 08:48:12;;;;;;;;;;;19.00;70.00;;;;;;5091068;28;19965;-68
2023/07/03 08:50:38;;;;;;;;;;;19.00;69.70;;;;;;5091475;28;19947;-68
2023/07/03 08:53:04;;;;;;;;;;;19.10;69.70;;;;;;5089921;28;19924;-68
2023/07/03 08:55:40;;;;;;;;;;;19.10;69.60;;;;;;5091101;28;20304;-69
2023/07/03 08:58:06;;;;;;;;;;;19.10;69.30;;;;;;5093972;28;19998;-68
2023/07/03 09:00:35;;;;;;;;;;;19.20;69.30;;;;;;5111740;28;19951;-69
2023/07/03 09:03:13;;;;;;;;;;;19.20;69.30;;;;;;5111837;28;19918;-68
2023/07/03 09:05:57;;;;;;;;;;;19.20;69.30;;;;;;5111241;28;19912;-69
2023/07/03 09:08:27;;;;;;;;;;;19.30;69.10;;;;;;5111407;28;20586;-69
2023/07/03 09:10:52;;;;;;;;;;;19.40;68.80;;;;;;5110793;28;20376;-68
2023/07/03 09:13:19;;;;;;;;;;;19.40;68.80;;;;;;5111024;28;19958;-69
2023/07/03 09:16:06;;;;;;;;;;;19.50;68.70;;;;;;5109242;28;19916;-69
2023/07/03 09:18:38;;;;;;;;;;;19.50;68.60;;;;;;5111435;28;19918;-69
2023/07/03 09:21:03;;;;;;;;;;;19.50;68.70;;;;;;5111369;28;19988;-69
2023/07/03 09:23:33;;;;;;;;;;;19.50;68.60;;;;;;5111094;28;20645;-68
2023/07/03 09:26:07;;;;;;;;;;;19.50;68.40;;;;;;5110544;28;20365;-69
2023/07/03 09:28:33;;;;;;;;;;;19.60;68.40;;;;;;5109564;28;19911;-69
2023/07/03 09:30:59;;;;;;;;;;;19.70;68.00;;;;;;5110834;28;19911;-68
2023/07/03 09:33:24;;;;;;;;;;;19.80;67.90;;;;;;5111056;28;19912;-69
2023/07/03 09:35:50;;;;;;;;;;;19.80;67.60;;;;;;5105005;28;19955;-68
2023/07/03 09:38:19;;;;;;;;;;;19.80;67.90;;;;;;5109602;28;19968;-68
2023/07/03 09:40:47;;;;;;;;;;;19.80;67.90;;;;;;5110944;28;19912;-68
2023/07/03 09:43:14;;;;;;;;;;;19.80;67.80;;;;;;5110414;27;20034;-69
2023/07/03 09:45:40;;;;;;;;;;;19.80;67.70;;;;;;5110432;28;19981;-69
2023/07/03 09:48:24;;;;;;;;;;;19.90;67.60;;;;;;5110770;28;19922;-68
2023/07/03 09:50:50;;;;;;;;;;;20.00;67.30;;;;;;5110719;28;19918;-69
2023/07/03 09:53:20;;;;;;;;;;;20.00;66.90;;;;;;5110528;28;19914;-69
2023/07/03 09:55:50;;;;;;;;;;;20.10;67.20;;;;;;5110288;28;19916;-68
2023/07/03 09:58:16;;;;;;;;;;;20.20;66.60;;;;;;5110534;28;19918;-69
2023/07/03 10:00:43;;;;;;;;;;;20.20;66.60;;;;;;5114872;27;19923;-68
2023/07/03 10:03:08;;;;;;;;;;;20.30;65.70;;;;;;5130747;27;19983;-68
2023/07/03 10:05:34;;;;;;;;;;;20.40;65.70;;;;;;5121587;27;20022;-69
2023/07/03 10:08:01;;;;;;;;;;;20.40;65.90;;;;;;5110057;28;19947;-69
2023/07/03 10:10:28;;;;;;;;;;;20.50;65.70;;;;;;5110310;28;19912;-69
2023/07/03 10:13:03;;;;;;;;;;;20.60;65.90;;;;;;5108749;28;19911;-69
2023/07/03 10:15:31;;;;;;;;;;;20.50;65.80;;;;;;5109750;28;20019;-68
2023/07/03 10:18:15;;;;;;;;;;;20.50;65.20;;;;;;5110189;28;20014;-68
2023/07/03 10:20:43;;;;;;;;;;;20.50;65.80;;;;;;5109991;28;19916;-68
2023/07/03 10:23:16;;;;;;;;;;;20.60;64.70;;;;;;5109563;27;19920;-69
2023/07/03 10:25:49;;;;;;;;;;;20.60;65.10;;;;;;5109721;28;19912;-69
2023/07/03 10:28:18;;;;;;;;;;;20.60;64.60;;;;;;5108404;28;19912;-69
2023/07/03 10:30:44;;;;;;;;;;;20.60;64.70;;;;;;5108348;28;19919;-69
2023/07/03 10:33:11;;;;;;;;;;;20.80;64.60;;;;;;5109715;28;19957;-68
2023/07/03 10:35:40;;;;;;;;;;;20.80;64.10;;;;;;5103956;28;19916;-68
2023/07/03 10:38:38;;;;;;;;;;;20.90;64.30;;;;;;5109592;28;20368;-69
2023/07/03 10:41:15;;;;;;;;;;;21.00;64.30;;;;;;5083698;28;19915;-68
2023/07/03 10:43:51;;;;;;;;;;;21.00;64.20;;;;;;5105033;28;20280;-68
2023/07/03 10:46:23;;;;;;;;;;;21.00;63.80;;;;;;5108970;28;19912;-69
2023/07/03 10:48:50;;;;;;;;;;;21.00;64.60;;;;;;5109309;28;19918;-69
2023/07/03 10:51:21;;;;;;;;;;;21.00;64.00;;;;;;5108409;28;19976;-68
2023/07/03 10:53:51;;;;;;;;;;;21.10;64.10;;;;;;5107704;28;19951;-69
2023/07/03 10:56:21;;;;;;;;;;;21.10;64.10;;;;;;5107860;28;19986;-69
2023/07/03 10:58:53;;;;;;;;;;;21.20;63.90;;;;;;5109525;28;19964;-69
2023/07/03 11:01:18;;;;;;;;;;;21.20;63.10;;;;;;5109532;28;19949;-68
2023/07/03 11:03:47;;;;;;;;;;;21.30;64.00;;;;;;5109444;28;19911;-69
2023/07/03 11:06:17;;;;;;;;;;;21.30;63.50;;;;;;5107661;28;19946;-69
2023/07/03 11:09:03;;;;;;;;;;;21.40;63.70;;;;;;5109522;28;19964;-69
2023/07/03 11:11:43;;;;;;;;;;;21.40;63.80;;;;;;5109421;28;20292;-69
2023/07/03 11:14:08;;;;;;;;;;;21.50;62.90;;;;;;5109499;28;19919;-69
2023/07/03 11:16:46;;;;;;;;;;;21.70;63.10;;;;;;5108701;28;19916;-69
2023/07/03 11:19:21;;;;;;;;;;;21.70;62.60;;;;;;5109277;28;19916;-69
2023/07/03 11:22:01;;;;;;;;;;;21.70;62.90;;;;;;5109218;28;19912;-68
2023/07/03 11:24:43;;;;;;;;;;;21.70;63.00;;;;;;5109276;28;20381;-68
2023/07/03 11:27:11;;;;;;;;;;;21.70;63.00;;;;;;5108934;28;19912;-69
2023/07/03 11:29:37;;;;;;;;;;;21.80;62.90;;;;;;5109044;28;19937;-68
2023/07/03 11:32:05;;;;;;;;;;;21.80;62.30;;;;;;5109206;28;19923;-69
2023/07/03 11:34:32;;;;;;;;;;;21.80;62.30;;;;;;5108622;28;20002;-69
2023/07/03 11:36:57;;;;;;;;;;;21.90;61.80;;;;;;5108182;28;19916;-68
2023/07/03 11:39:28;;;;;;;;;;;22.10;62.60;;;;;;5109133;28;19918;-69
2023/07/03 11:42:00;;;;;;;;;;;22.20;62.80;;;;;;5108876;28;19912;-69
2023/07/03 11:44:42;;;;;;;;;;;22.30;62.00;;;;;;5108985;28;20368;-69
2023/07/03 11:47:12;;;;;;;;;;;22.20;62.00;;;;;;5108612;28;19908;-69
2023/07/03 11:49:42;;;;;;;;;;;22.20;62.30;;;;;;5108937;28;19988;-69
2023/07/03 11:52:11;;;;;;;;;;;22.20;62.80;;;;;;5108796;28;19907;-69
2023/07/03 11:54:38;;;;;;;;;;;22.20;62.20;;;;;;5112080;28;20379;-69
2023/07/03 11:57:05;;;;;;;;;;;22.30;62.50;;;;;;5128991;27;20389;-69
2023/07/03 11:59:36;;;;;;;;;;;22.40;62.50;;;;;;5127860;28;19912;-69
2023/07/03 12:02:21;;;;;;;;;;;22.50;61.40;;;;;;5129428;27;20295;-69
2023/07/03 12:04:48;;;;;;;;;;;22.50;62.10;;;;;;5084426;27;19912;-68
2023/07/03 12:07:21;;;;;;;;;;;22.60;61.50;;;;;;5108130;28;19911;-69
2023/07/03 12:09:47;;;;;;;;;;;22.70;61.50;;;;;;5108563;28;20679;-69
2023/07/03 12:12:13;;;;;;;;;;;22.80;61.90;;;;;;5108808;28;19918;-69
2023/07/03 12:14:47;;;;;;;;;;;23.00;61.40;;;;;;5107175;28;19911;-69
2023/07/03 12:17:22;;;;;;;;;;;23.10;61.20;;;;;;5108452;28;19955;-69
2023/07/03 12:19:48;;;;;;;;;;;23.00;61.50;;;;;;5108655;28;19912;-69
2023/07/03 12:22:22;;;;;;;;;;;22.90;61.90;;;;;;5108399;28;19923;-68
2023/07/03 12:24:47;;;;;;;;;;;22.80;61.00;;;;;;5108460;28;20026;-69
2023/07/03 12:27:14;;;;;;;;;;;22.70;62.30;;;;;;5108253;28;20622;-69
2023/07/03 12:29:47;;;;;;;;;;;22.70;61.60;;;;;;5108633;28;20362;-69
2023/07/03 12:32:21;;;;;;;;;;;22.60;61.80;;;;;;5108661;28;20408;-69
2023/07/03 12:34:48;;;;;;;;;;;22.40;61.80;;;;;;5108085;28;19912;-69
2023/07/03 12:37:14;;;;;;;;;;;22.40;62.90;;;;;;5107558;28;19915;-69
2023/07/03 12:39:41;;;;;;;;;;;22.40;63.30;;;;;;5108242;28;20368;-69
2023/07/03 12:42:08;;;;;;;;;;;22.40;63.10;;;;;;5108011;28;20364;-69
2023/07/03 12:44:34;;;;;;;;;;;22.30;63.20;;;;;;5108548;28;19912;-69
2023/07/03 12:47:07;;;;;;;;;;;22.20;62.60;;;;;;5110124;28;19981;-69
2023/07/03 12:49:45;;;;;;;;;;;22.20;62.50;;;;;;5101822;28;19934;-69
2023/07/03 12:52:12;;;;;;;;;;;22.20;63.30;;;;;;5111584;28;19912;-69
2023/07/03 12:54:38;;;;;;;;;;;22.30;62.90;;;;;;5111467;28;19946;-69
2023/07/03 12:57:06;;;;;;;;;;;22.30;62.10;;;;;;5111344;28;19963;-69
2023/07/03 12:59:31;;;;;;;;;;;22.40;61.90;;;;;;5112082;28;19911;-69
2023/07/03 13:01:58;;;;;;;;;;;22.50;62.00;;;;;;5111917;28;19965;-69
2023/07/03 13:04:28;;;;;;;;;;;22.50;62.50;;;;;;5111561;28;19911;-69
2023/07/03 13:06:53;;;;;;;;;;;22.60;62.60;;;;;;5109832;28;19965;-69
2023/07/03 13:09:19;;;;;;;;;;;22.60;62.40;;;;;;5111437;28;19912;-69
2023/07/03 13:11:45;;;;;;;;;;;22.70;62.20;;;;;;5111074;28;19919;-69
2023/07/03 13:14:12;;;;;;;;;;;22.80;61.60;;;;;;5109294;28;20388;-69
2023/07/03 13:16:38;;;;;;;;;;;22.90;62.10;;;;;;5105700;28;19919;-68
2023/07/03 13:19:04;;;;;;;;;;;22.90;62.10;;;;;;5110573;28;19915;-69
2023/07/03 13:21:30;;;;;;;;;;;23.00;61.90;;;;;;5110902;28;19923;-69
2023/07/03 13:24:04;;;;;;;;;;;23.00;62.00;;;;;;5110458;27;19926;-69
2023/07/03 13:26:29;;;;;;;;;;;23.00;61.80;;;;;;5107857;28;19942;-69
2023/07/03 13:28:58;;;;;;;;;;;23.00;61.70;;;;;;5111284;28;19989;-69
2023/07/03 13:31:25;;;;;;;;;;;22.90;62.00;;;;;;5109721;28;19943;-68
2023/07/03 13:33:59;;;;;;;;;;;23.00;62.20;;;;;;5111354;28;19911;-69
2023/07/03 13:36:27;;;;;;;;;;;23.00;62.00;;;;;;5109973;28;19923;-69
2023/07/03 13:39:13;;;;;;;;;;;23.10;61.70;;;;;;5110560;28;20492;-69
2023/07/03 13:41:39;;;;;;;;;;;23.20;61.70;;;;;;5109390;27;19909;-69
2023/07/03 13:44:06;;;;;;;;;;;23.30;61.60;;;;;;5110790;28;19918;-69
2023/07/03 13:46:33;;;;;;;;;;;23.30;61.50;;;;;;5110744;28;19918;-69
2023/07/03 13:48:59;;;;;;;;;;;23.40;61.60;;;;;;5111039;28;19919;-69
2023/07/03 13:51:24;;;;;;;;;;;23.50;60.80;;;;;;5110832;28;19912;-69
2023/07/03 13:53:51;;;;;;;;;;;23.50;60.80;;;;;;5110871;28;20011;-69
2023/07/03 13:56:17;;;;;;;;;;;23.60;61.00;;;;;;5110279;27;19970;-69
2023/07/03 13:58:42;;;;;;;;;;;23.70;60.80;;;;;;5109754;28;20023;-69
2023/07/03 14:01:08;;;;;;;;;;;23.70;60.60;;;;;;5110180;27;20504;-69
2023/07/03 14:03:33;;;;;;;;;;;23.80;60.40;;;;;;5113842;27;19912;-69
2023/07/03 14:05:59;;;;;;;;;;;23.90;60.20;;;;;;5108676;28;19918;-69
2023/07/03 14:08:27;;;;;;;;;;;24.00;60.40;;;;;;5110600;28;20006;-69
2023/07/03 14:10:52;;;;;;;;;;;24.00;59.40;;;;;;5109913;28;19973;-69
2023/07/03 14:13:18;;;;;;;;;;;24.10;60.30;;;;;;5109910;28;19915;-69
2023/07/03 14:15:43;;;;;;;;;;;24.10;59.00;;;;;;5107937;28;19926;-69
2023/07/03 14:18:09;;;;;;;;;;;24.00;59.40;;;;;;5110203;28;19912;-68